To NAV CANADA Home Page Login to a new session Search on AWWS site Feedback and Comments Disclaimer Vers la page française équivalente Tips FAQ What's new on the site To the Forecasts and Observations / NOTAM section To "File a Flight Plan" website Publications and other links Update of the User's profile FIC Telephone Numbers My Weather Data Folder Route Weather Data Regional Weather Data Local Weather Data To the Forecasts and Observations / NOTAM section
Request Generated 03/05/2015 at 22:28:38 UTC . Weather information available at that time is displayed.

METAR/TAF

RED DEER/RED DEER REGIONAL/AB    

METAR CYQF 052200Z 19004KT 15SM FEW070 FEW160 BKN250 04/M06 A2998 RMK
AC1AC1CI3 SLP200=
METAR CYQF 052100Z 18004KT 15SM FEW070 BKN250 03/M07 A2999 RMK AC2CI4
SLP208=
METAR CYQF 052000Z 16004KT 15SM FEW070 OVC250 01/M08 A3001 RMK AC2CI6
SLP215=

TAF CYQF 051738Z 0518/0606 24006KT P6SM SCT070 BKN240
FM060000 20004KT P6SM VCSH BKN080
RMK NXT FCST BY 060000Z=
Your time UTC time
Weather data provided by Environment Canada and NAV CANADA